Isle of North Uist, United Kingdom
Current Conditions -  °F | °C
As of 6:20 PM on Wednesday 28 Jan 2015 (Local Time) from EGPL Reporting Station
Clear Clear  
Wind Chill: 23°   Ceiling: Unl
Heat Index: 34°   Visibility: 6mi
Dew Point: 30°   Wind: 18mph
Humidity: 87%   Direction: 300°WNW
Pressure: 29.06"   Gusts: NA
Location:  57.6°N, 7.16°W
Report Text: EGPL 281820Z AUTO 30016KT 9999 NCD 01/M01 Q0984
Loading
Personal Weather Stations






























Interactive Weather Map New forecast layout! Learn more

10-Day Weather Forecast

Advertisements
Track Severe Weather on mobile